Thurmaston, United Kingdom
Current Conditions -  °F | °C
As of 11:50 AM on Thursday 23 Oct 2014 (Local Time) from EGNX Reporting Station
Broken Clouds Broken Clouds  
Wind Chill: 55°   Ceiling: 2200
Heat Index: 55°   Visibility: 6mi
Dew Point: 52°   Wind: 15mph
Humidity: 88%   Direction: 210°SSW
Pressure: 30.03"   Gusts: NA
Location:  52.68°N, 1.09°W
Report Text: EGNX 231050Z 21013KT 9999 SCT012 BKN022 13/11 Q1017
Loading
Personal Weather Stations






























Interactive Weather Map
Tropical Storm Tracking
New forecast layout! Learn more

10-Day Weather Forecast

Advertisements
Track Severe Weather on mobile